createdAt,value
2019-02-02T00:01:21.091Z,16.33
2019-02-02T00:04:09.872Z,17.87
2019-02-02T00:06:58.637Z,16.27
2019-02-02T00:09:47.007Z,17.60
2019-02-02T00:12:35.613Z,16.77
2019-02-02T00:15:24.303Z,17.17
2019-02-02T00:18:12.648Z,17.10
2019-02-02T00:21:01.149Z,18.30
2019-02-02T00:23:49.605Z,17.80
2019-02-02T00:26:38.035Z,18.03
2019-02-02T00:29:26.907Z,18.30
2019-02-02T00:32:15.543Z,17.30
2019-02-02T00:35:04.872Z,16.97
2019-02-02T00:37:53.608Z,19.77
2019-02-02T00:40:44.764Z,17.30
2019-02-02T00:43:33.168Z,17.77
2019-02-02T00:46:21.724Z,17.90
2019-02-02T00:49:10.063Z,18.20
2019-02-02T00:51:58.528Z,17.17
2019-02-02T00:54:46.997Z,17.70
2019-02-02T00:57:35.191Z,16.67
2019-02-02T01:00:27.920Z,17.17
2019-02-02T01:03:16.321Z,16.13
2019-02-02T01:06:06.008Z,16.40
2019-02-02T01:08:54.960Z,16.13
2019-02-02T01:11:43.428Z,17.17
2019-02-02T01:14:31.598Z,16.73
2019-02-02T01:17:20.482Z,17.17
2019-02-02T01:20:14.260Z,16.70
2019-02-02T01:23:02.814Z,19.20
2019-02-02T01:25:51.780Z,16.27
2019-02-02T01:28:40.121Z,16.97
2019-02-02T01:31:28.341Z,16.73
2019-02-02T01:34:16.766Z,16.80
2019-02-02T01:37:05.084Z,17.73
2019-02-02T01:39:53.624Z,17.60
2019-02-02T01:42:42.264Z,16.87
2019-02-02T01:45:30.630Z,17.00
2019-02-02T01:48:19.144Z,16.13
2019-02-02T01:51:08.148Z,17.53
2019-02-02T01:53:57.142Z,16.03
2019-02-02T01:56:45.376Z,17.93
2019-02-02T01:59:33.888Z,17.03
2019-02-02T02:02:22.624Z,17.50
2019-02-02T02:05:12.846Z,16.60
2019-02-02T02:08:01.474Z,16.90
2019-02-02T02:10:49.989Z,16.63
2019-02-02T02:13:38.481Z,17.70
2019-02-02T02:16:26.907Z,17.20
2019-02-02T02:19:15.443Z,14.57
2019-02-02T02:22:04.161Z,15.20
2019-02-02T02:24:52.594Z,16.33
2019-02-02T02:27:41.507Z,15.83
2019-02-02T02:30:29.715Z,16.30
2019-02-02T02:33:17.916Z,16.97
2019-02-02T02:36:07.136Z,16.03
2019-02-02T02:38:55.428Z,15.60
2019-02-02T02:41:43.985Z,15.97
2019-02-02T02:44:32.655Z,15.53
2019-02-02T02:47:21.505Z,16.77
2019-02-02T02:50:18.669Z,15.70
2019-02-02T02:53:07.197Z,16.53
2019-02-02T02:55:56.023Z,15.37
2019-02-02T02:58:44.407Z,15.90
2019-02-02T03:01:32.587Z,16.30
2019-02-02T03:04:21.294Z,16.57
2019-02-02T03:07:09.946Z,15.77
2019-02-02T03:09:58.831Z,15.80
2019-02-02T03:12:47.388Z,15.87
2019-02-02T03:15:36.245Z,17.47
2019-02-02T03:18:25.345Z,15.73
2019-02-02T03:21:13.729Z,16.60
2019-02-02T03:24:02.549Z,15.73
2019-02-02T03:26:50.975Z,16.50
2019-02-02T03:29:39.650Z,14.97
2019-02-02T03:32:28.262Z,15.57
2019-02-02T03:35:19.581Z,17.30
2019-02-02T03:38:08.601Z,16.33
2019-02-02T03:40:57.183Z,16.40
2019-02-02T03:43:45.920Z,16.90
2019-02-02T03:46:34.429Z,16.77
2019-02-02T03:49:23.367Z,15.40
2019-02-02T03:52:12.257Z,17.47
2019-02-02T03:55:00.924Z,17.40
2019-02-02T03:57:49.584Z,15.47
2019-02-02T04:00:38.518Z,15.90
2019-02-02T04:03:28.002Z,16.50
2019-02-02T04:06:16.931Z,15.80
2019-02-02T04:09:07.158Z,16.10
2019-02-02T04:11:56.481Z,15.27
2019-02-02T04:14:45.085Z,14.80
2019-02-02T04:17:34.147Z,16.90
2019-02-02T04:20:23.620Z,15.53
2019-02-02T04:23:12.032Z,16.07
2019-02-02T04:26:00.614Z,16.30
2019-02-02T04:28:49.111Z,15.60
2019-02-02T04:31:38.018Z,14.80
2019-02-02T04:34:27.979Z,13.97
2019-02-02T04:37:16.278Z,14.83
2019-02-02T04:40:07.582Z,14.57
2019-02-02T04:42:56.261Z,17.57
2019-02-02T04:45:44.719Z,14.47
2019-02-02T04:48:33.017Z,14.63
2019-02-02T04:51:21.453Z,14.23
2019-02-02T04:54:10.311Z,15.30
2019-02-02T04:57:00.817Z,14.40
2019-02-02T04:59:49.686Z,13.80
2019-02-02T05:02:38.247Z,15.90
2019-02-02T05:05:26.499Z,14.67
2019-02-02T05:08:15.345Z,15.00
2019-02-02T05:11:04.412Z,14.27
2019-02-02T05:13:52.623Z,15.23
2019-02-02T05:16:41.595Z,15.00
2019-02-02T05:19:30.194Z,15.03
2019-02-02T05:22:18.584Z,15.83
2019-02-02T05:25:09.734Z,14.60
2019-02-02T05:27:58.027Z,14.80
2019-02-02T05:30:46.627Z,15.53
2019-02-02T05:33:34.847Z,14.23
2019-02-02T05:36:23.213Z,14.27
2019-02-02T05:39:11.845Z,15.60
2019-02-02T05:42:00.391Z,16.07
2019-02-02T05:44:49.026Z,14.50
2019-02-02T05:47:37.210Z,14.67
2019-02-02T05:50:26.013Z,16.53
2019-02-02T05:53:14.540Z,13.67
2019-02-02T05:56:02.878Z,15.50
2019-02-02T05:58:51.316Z,16.37
2019-02-02T06:01:39.828Z,14.70
2019-02-02T06:04:28.244Z,15.70
2019-02-02T06:07:17.340Z,15.43
2019-02-02T06:10:14.123Z,14.30
2019-02-02T06:13:02.646Z,14.53
2019-02-02T06:15:51.343Z,16.07
2019-02-02T06:18:39.699Z,14.70
2019-02-02T06:21:28.279Z,14.77
2019-02-02T06:24:16.495Z,15.77
2019-02-02T06:27:05.456Z,15.47
2019-02-02T06:30:03.723Z,14.63
2019-02-02T06:32:43.599Z,16.20
2019-02-02T06:35:32.197Z,14.80
2019-02-02T06:38:21.152Z,15.23
2019-02-02T06:41:09.646Z,13.90
2019-02-02T06:43:58.188Z,16.00
2019-02-02T06:46:46.338Z,14.47
2019-02-02T06:49:35.184Z,15.00
2019-02-02T06:52:23.932Z,15.90
2019-02-02T06:55:14.810Z,12.93
2019-02-02T06:58:03.465Z,13.90
2019-02-02T07:00:52.265Z,15.30
2019-02-02T07:03:41.390Z,14.10
2019-02-02T07:06:29.742Z,14.80
2019-02-02T07:09:18.538Z,16.40
2019-02-02T07:12:06.980Z,14.17
2019-02-02T07:14:55.408Z,15.13
2019-02-02T07:17:43.556Z,13.43
2019-02-02T07:20:32.030Z,14.73
2019-02-02T07:23:20.408Z,14.20
2019-02-02T07:26:08.799Z,15.43
2019-02-02T07:28:56.962Z,15.07
2019-02-02T07:31:45.227Z,12.60
2019-02-02T07:34:33.886Z,14.30
2019-02-02T07:37:22.699Z,14.30
2019-02-02T07:40:16.304Z,13.60
2019-02-02T07:43:05.445Z,14.80
2019-02-02T07:45:54.100Z,13.73
2019-02-02T07:48:42.316Z,13.50
2019-02-02T07:51:31.303Z,17.07
2019-02-02T07:54:21.546Z,19.33
2019-02-02T07:57:09.787Z,17.73
2019-02-02T07:59:58.095Z,15.97
2019-02-02T08:02:46.924Z,15.40
2019-02-02T08:05:35.682Z,15.10
2019-02-02T08:08:24.174Z,15.00
2019-02-02T08:11:12.615Z,14.83
2019-02-02T08:14:01.769Z,14.07
2019-02-02T08:16:52.538Z,13.73
2019-02-02T08:19:40.135Z,12.83
2019-02-02T08:22:28.921Z,14.63
2019-02-02T08:25:17.505Z,12.97
2019-02-02T08:28:06.478Z,13.53
2019-02-02T08:30:55.288Z,14.20
2019-02-02T08:33:45.421Z,13.53
2019-02-02T08:36:34.059Z,15.80
2019-02-02T08:39:29.283Z,18.50
2019-02-02T08:42:12.687Z,22.03
2019-02-02T08:45:01.344Z,23.77
2019-02-02T08:47:50.521Z,25.63
2019-02-02T08:50:39.211Z,28.90
2019-02-02T08:53:27.950Z,29.73
2019-02-02T08:56:17.241Z,28.43
2019-02-02T08:59:05.424Z,30.13
2019-02-02T09:01:55.150Z,28.40
2019-02-02T09:04:43.640Z,29.50
2019-02-02T09:07:32.182Z,31.47
2019-02-02T09:10:26.921Z,32.47
2019-02-02T09:13:15.414Z,32.13
2019-02-02T09:16:03.808Z,32.80
2019-02-02T09:18:52.138Z,31.40
2019-02-02T09:21:42.010Z,34.27
2019-02-02T09:24:30.447Z,32.80
2019-02-02T09:27:19.000Z,33.90
2019-02-02T09:30:15.451Z,32.97
2019-02-02T09:33:05.172Z,32.83
2019-02-02T09:35:53.802Z,54.23
2019-02-02T09:38:42.131Z,63.87
2019-02-02T09:41:31.590Z,64.77
2019-02-02T09:44:21.441Z,65.27
2019-02-02T09:47:09.920Z,58.80
2019-02-02T09:49:58.647Z,54.17
2019-02-02T09:52:46.995Z,52.10
2019-02-02T09:55:35.876Z,48.47
2019-02-02T09:58:24.938Z,47.77
2019-02-02T10:01:13.328Z,43.60
2019-02-02T10:04:02.480Z,42.13
2019-02-02T10:06:51.474Z,43.00
2019-02-02T10:09:40.631Z,37.87
2019-02-02T10:12:29.282Z,36.90
2019-02-02T10:15:19.150Z,38.47
2019-02-02T10:18:07.199Z,34.20
2019-02-02T10:21:04.132Z,34.10
2019-02-02T10:23:47.128Z,33.50
2019-02-02T10:26:35.640Z,32.57
2019-02-02T10:29:23.992Z,32.80
2019-02-02T10:32:12.497Z,31.70
2019-02-02T10:35:02.817Z,32.73
2019-02-02T10:37:51.119Z,29.37
2019-02-02T10:40:39.514Z,31.47
2019-02-02T10:43:28.144Z,30.83
2019-02-02T10:46:16.741Z,28.07
2019-02-02T10:49:05.410Z,26.50
2019-02-02T10:51:35.159Z,29.30
2019-02-02T10:54:06.007Z,28.97
2019-02-02T10:56:35.802Z,28.77
2019-02-02T10:59:05.656Z,27.80
2019-02-02T11:01:35.562Z,27.67
2019-02-02T11:04:05.889Z,26.30
2019-02-02T11:06:35.868Z,26.80
2019-02-02T11:09:07.975Z,26.13
2019-02-02T11:11:37.701Z,26.10
2019-02-02T11:14:07.751Z,24.80
2019-02-02T11:16:37.754Z,25.63
2019-02-02T11:19:08.432Z,26.43
2019-02-02T11:21:38.235Z,24.80
2019-02-02T11:24:08.305Z,24.90
2019-02-02T11:26:38.318Z,27.63
2019-02-02T11:29:08.831Z,23.37
2019-02-02T11:32:02.883Z,23.10
2019-02-02T11:34:46.854Z,22.83
2019-02-02T11:37:35.389Z,22.07
2019-02-02T11:40:29.212Z,22.30
2019-02-02T11:43:17.599Z,22.13
2019-02-02T11:46:06.048Z,22.50
2019-02-02T11:48:35.929Z,22.93
2019-02-02T11:51:07.167Z,20.20
2019-02-02T11:53:37.580Z,23.10
2019-02-02T11:56:08.163Z,22.40
2019-02-02T11:58:56.523Z,20.87
2019-02-02T12:01:45.304Z,20.63
2019-02-02T12:04:16.039Z,19.83
2019-02-02T12:06:49.068Z,20.60
2019-02-02T12:09:19.564Z,22.73
2019-02-02T12:11:50.267Z,20.67
2019-02-02T12:14:20.906Z,20.20
2019-02-02T12:16:51.636Z,20.97
2019-02-02T12:19:21.464Z,20.07
2019-02-02T12:21:51.233Z,20.93
2019-02-02T12:24:21.116Z,17.93
2019-02-02T12:26:51.852Z,20.50
2019-02-02T12:29:22.532Z,20.50
2019-02-02T12:31:53.194Z,19.90
2019-02-02T12:34:23.832Z,21.00
2019-02-02T12:36:54.821Z,19.83
2019-02-02T12:39:25.466Z,20.77
2019-02-02T12:41:56.426Z,19.00
2019-02-02T12:44:27.070Z,19.73
2019-02-02T12:46:57.726Z,20.60
2019-02-02T12:49:29.040Z,20.83
2019-02-02T12:51:59.712Z,19.00
2019-02-02T12:54:30.900Z,21.10
2019-02-02T12:57:01.550Z,18.50
2019-02-02T12:59:32.334Z,19.30
2019-02-02T13:02:03.686Z,19.13
2019-02-02T13:04:34.328Z,17.97
2019-02-02T13:07:05.486Z,18.97
2019-02-02T13:09:53.640Z,19.20
2019-02-02T13:12:42.166Z,19.60
2019-02-02T13:15:30.523Z,19.60
2019-02-02T13:18:01.547Z,19.10
2019-02-02T13:20:32.714Z,20.03
2019-02-02T13:23:03.716Z,18.43
2019-02-02T13:25:34.430Z,19.30
2019-02-02T13:28:07.965Z,18.50
2019-02-02T13:30:56.881Z,18.67
2019-02-02T13:33:45.434Z,18.80
2019-02-02T13:36:33.851Z,19.87
2019-02-02T13:39:07.579Z,18.33
2019-02-02T13:41:38.288Z,18.10
2019-02-02T13:44:08.961Z,17.53
2019-02-02T13:46:39.602Z,18.10
2019-02-02T13:49:10.276Z,18.90
2019-02-02T13:51:40.988Z,18.23
2019-02-02T13:54:11.729Z,18.27
2019-02-02T13:56:42.799Z,17.67
2019-02-02T13:59:13.614Z,15.63
2019-02-02T14:01:44.334Z,18.40
2019-02-02T14:04:15.002Z,18.33
2019-02-02T14:06:45.645Z,16.90
2019-02-02T14:09:16.379Z,18.03
2019-02-02T14:11:47.079Z,16.40
2019-02-02T14:14:17.764Z,17.33
2019-02-02T14:16:48.743Z,17.53
2019-02-02T14:19:19.796Z,18.67
2019-02-02T14:21:50.507Z,18.00
2019-02-02T14:24:21.499Z,18.23
2019-02-02T14:26:52.237Z,18.00
2019-02-02T14:29:22.877Z,17.93
2019-02-02T14:31:53.547Z,18.00
2019-02-02T14:34:25.463Z,17.67
2019-02-02T14:36:56.652Z,16.43
2019-02-02T14:39:27.331Z,16.60
2019-02-02T14:42:18.232Z,17.57
2019-02-02T14:45:08.291Z,16.23
2019-02-02T14:47:56.732Z,16.40
2019-02-02T14:50:48.553Z,15.90
2019-02-02T14:53:37.037Z,16.50
2019-02-02T14:56:25.968Z,17.20
2019-02-02T14:59:14.818Z,17.10
2019-02-02T15:02:03.145Z,15.77
2019-02-02T15:04:51.765Z,18.00
2019-02-02T15:07:41.688Z,17.70
2019-02-02T15:10:30.966Z,16.17
2019-02-02T15:13:21.208Z,16.67
2019-02-02T15:16:10.274Z,15.40
2019-02-02T15:18:59.554Z,16.80
2019-02-02T15:21:47.900Z,16.57
2019-02-02T15:24:36.304Z,16.90
2019-02-02T15:27:25.211Z,15.83
2019-02-02T15:30:18.959Z,15.70
2019-02-02T15:33:07.381Z,15.60
2019-02-02T15:35:55.838Z,15.47
2019-02-02T15:38:44.824Z,15.70
2019-02-02T15:41:33.680Z,16.20
2019-02-02T15:44:22.346Z,15.47
2019-02-02T15:47:10.806Z,15.50
2019-02-02T15:49:59.366Z,15.03
2019-02-02T15:52:48.218Z,15.47
2019-02-02T15:55:36.451Z,16.23
2019-02-02T15:58:25.019Z,15.63
2019-02-02T16:01:13.430Z,15.63
2019-02-02T16:04:01.764Z,15.00
2019-02-02T16:06:50.474Z,16.37
2019-02-02T16:09:39.199Z,15.20
2019-02-02T16:12:28.030Z,16.40
2019-02-02T16:15:16.620Z,15.20
2019-02-02T16:18:06.403Z,15.27
2019-02-02T16:20:54.640Z,15.60
2019-02-02T16:23:43.196Z,16.03
2019-02-02T16:26:32.114Z,16.10
2019-02-02T16:29:20.526Z,15.33
2019-02-02T16:32:09.126Z,15.43
2019-02-02T16:34:57.825Z,15.80
2019-02-02T16:37:46.322Z,15.17
2019-02-02T16:40:35.073Z,14.83
2019-02-02T16:43:23.888Z,16.33
2019-02-02T16:46:12.339Z,16.10
2019-02-02T16:49:00.951Z,16.40
2019-02-02T16:51:49.595Z,17.50
2019-02-02T16:54:39.739Z,14.80
2019-02-02T16:57:28.237Z,16.50
2019-02-02T17:00:25.259Z,15.80
2019-02-02T17:03:14.905Z,15.77
2019-02-02T17:06:03.153Z,13.93
2019-02-02T17:08:51.226Z,17.17
2019-02-02T17:11:39.510Z,16.17
2019-02-02T17:14:28.055Z,14.83
2019-02-02T17:17:16.552Z,17.03
2019-02-02T17:20:10.748Z,13.87
2019-02-02T17:22:58.817Z,15.40
2019-02-02T17:25:47.337Z,14.33
2019-02-02T17:28:35.415Z,14.60
2019-02-02T17:31:23.717Z,15.17
2019-02-02T17:33:54.396Z,14.70
2019-02-02T17:36:25.103Z,14.67
2019-02-02T17:38:55.847Z,16.40
2019-02-02T17:41:26.525Z,13.77
2019-02-02T17:43:57.243Z,14.13
2019-02-02T17:46:27.882Z,13.63
2019-02-02T17:48:58.556Z,13.50
2019-02-02T17:51:29.210Z,13.63
2019-02-02T17:54:00.019Z,14.20
2019-02-02T17:56:30.947Z,13.63
2019-02-02T17:59:01.714Z,14.80
2019-02-02T18:01:32.389Z,13.27
2019-02-02T18:04:20.941Z,14.97
2019-02-02T18:07:09.198Z,13.43
2019-02-02T18:09:57.815Z,12.90
2019-02-02T18:12:46.542Z,13.40
2019-02-02T18:15:35.363Z,13.97
2019-02-02T18:18:23.468Z,12.77
2019-02-02T18:21:11.816Z,12.87
2019-02-02T18:24:02.226Z,12.47
2019-02-02T18:26:51.225Z,12.97
2019-02-02T18:29:39.824Z,12.20
2019-02-02T18:32:28.476Z,12.87
2019-02-02T18:35:17.529Z,12.20
2019-02-02T18:38:05.982Z,12.40
2019-02-02T18:40:54.140Z,15.70
2019-02-02T18:43:42.700Z,13.80
2019-02-02T18:46:31.427Z,15.40
2019-02-02T18:49:20.483Z,13.37
2019-02-02T18:52:09.074Z,14.03
2019-02-02T18:54:57.474Z,13.07
2019-02-02T18:57:46.045Z,13.23
2019-02-02T19:00:34.883Z,13.00
2019-02-02T19:03:24.055Z,12.13
2019-02-02T19:06:12.427Z,13.07
2019-02-02T19:09:00.776Z,13.10
2019-02-02T19:11:49.460Z,12.10
2019-02-02T19:14:37.899Z,12.57
2019-02-02T19:17:26.603Z,12.20
2019-02-02T19:20:18.427Z,10.93
2019-02-02T19:23:07.527Z,12.90
2019-02-02T19:25:56.528Z,11.93
2019-02-02T19:28:45.260Z,11.80
2019-02-02T19:31:33.872Z,11.87
2019-02-02T19:34:22.743Z,11.20
2019-02-02T19:37:11.450Z,11.30
2019-02-02T19:40:00.540Z,10.47
2019-02-02T19:42:49.201Z,10.77
2019-02-02T19:45:38.068Z,10.80
2019-02-02T19:48:26.949Z,11.43
2019-02-02T19:51:15.673Z,11.00
2019-02-02T19:54:07.553Z,9.87
2019-02-02T19:56:54.934Z,10.93
2019-02-02T19:59:43.494Z,10.57
2019-02-02T20:02:33.150Z,10.33
2019-02-02T20:05:28.721Z,10.47
2019-02-02T20:08:12.120Z,10.00
2019-02-02T20:11:01.105Z,11.40
2019-02-02T20:13:49.533Z,10.90
2019-02-02T20:16:38.394Z,9.20
2019-02-02T20:19:26.866Z,10.63
2019-02-02T20:22:15.424Z,9.53
2019-02-02T20:25:05.232Z,9.70
2019-02-02T20:27:53.621Z,10.20
2019-02-02T20:30:42.155Z,10.20
2019-02-02T20:33:30.308Z,10.97
2019-02-02T20:36:19.434Z,12.10
2019-02-02T20:39:08.764Z,9.67
2019-02-02T20:41:59.865Z,10.07
2019-02-02T20:44:47.230Z,11.37
2019-02-02T20:47:35.613Z,9.40
2019-02-02T20:50:24.096Z,10.40
2019-02-02T20:53:12.550Z,10.10
2019-02-02T20:56:01.127Z,10.30
2019-02-02T20:58:49.344Z,9.63
2019-02-02T21:01:38.101Z,9.10
2019-02-02T21:04:26.602Z,9.77
2019-02-02T21:07:16.008Z,9.83
2019-02-02T21:10:07.794Z,9.60
2019-02-02T21:12:56.851Z,10.60
2019-02-02T21:15:45.018Z,8.23
2019-02-02T21:18:33.702Z,9.50
2019-02-02T21:21:21.912Z,8.30
2019-02-02T21:24:11.001Z,9.57
2019-02-02T21:26:59.449Z,9.80
2019-02-02T21:29:47.852Z,9.90
2019-02-02T21:32:37.192Z,9.40
2019-02-02T21:35:26.160Z,8.77
2019-02-02T21:38:14.435Z,8.83
2019-02-02T21:41:03.039Z,9.07
2019-02-02T21:43:51.269Z,9.90
2019-02-02T21:46:39.617Z,9.03
2019-02-02T21:49:28.266Z,7.83
2019-02-02T21:52:16.564Z,8.57
2019-02-02T21:55:08.558Z,8.40
2019-02-02T21:57:57.289Z,9.90
2019-02-02T22:00:46.257Z,8.20
2019-02-02T22:03:37.899Z,8.87
2019-02-02T22:06:27.178Z,8.63
2019-02-02T22:09:17.104Z,8.50
2019-02-02T22:12:06.660Z,8.73
2019-02-02T22:14:55.218Z,8.00
2019-02-02T22:17:43.900Z,7.70
2019-02-02T22:20:32.454Z,7.90
2019-02-02T22:23:21.084Z,8.50
2019-02-02T22:26:09.486Z,9.53
2019-02-02T22:28:58.078Z,7.57
2019-02-02T22:31:47.194Z,8.87
2019-02-02T22:34:35.535Z,7.80
2019-02-02T22:37:24.220Z,8.03
2019-02-02T22:40:15.938Z,9.07
2019-02-02T22:43:05.519Z,8.60
2019-02-02T22:45:54.155Z,8.10
2019-02-02T22:48:42.467Z,7.37
2019-02-02T22:51:30.730Z,8.57
2019-02-02T22:54:19.055Z,8.27
2019-02-02T22:57:07.391Z,9.23
2019-02-02T22:59:56.037Z,8.77
2019-02-02T23:02:44.805Z,7.80
2019-02-02T23:06:09.655Z,8.87
2019-02-02T23:09:10.655Z,7.97
2019-02-02T23:12:22.907Z,8.80
2019-02-02T23:15:26.495Z,7.53
2019-02-02T23:18:14.893Z,8.03
2019-02-02T23:21:03.485Z,8.07
2019-02-02T23:23:52.345Z,9.07
2019-02-02T23:26:40.975Z,8.10
2019-02-02T23:29:30.008Z,8.50
2019-02-02T23:32:18.747Z,7.20
2019-02-02T23:35:08.554Z,8.67
2019-02-02T23:37:57.072Z,8.33
2019-02-02T23:40:45.719Z,7.30
2019-02-02T23:43:34.270Z,7.80
2019-02-02T23:46:22.795Z,8.37
2019-02-02T23:49:11.219Z,7.67
2019-02-02T23:52:00.287Z,8.60
2019-02-02T23:54:49.066Z,7.50
2019-02-02T23:57:37.920Z,7.53
